sensor_id;sensor_type;location;lat;lon;timestamp;P1;durP1;ratioP1;P2;durP2;ratioP2
17604;SDS011;8921;50.964;6.800;2023-03-26T00:02:07;16.70;;;3.63;;
17604;SDS011;8921;50.964;6.800;2023-03-26T00:04:36;16.83;;;4.60;;
17604;SDS011;8921;50.964;6.800;2023-03-26T00:07:04;18.80;;;4.17;;
17604;SDS011;8921;50.964;6.800;2023-03-26T00:09:32;17.30;;;4.60;;
17604;SDS011;8921;50.964;6.800;2023-03-26T00:12:01;24.07;;;5.50;;
17604;SDS011;8921;50.964;6.800;2023-03-26T00:14:29;23.00;;;4.80;;
17604;SDS011;8921;50.964;6.800;2023-03-26T00:16:57;18.03;;;4.03;;
17604;SDS011;8921;50.964;6.800;2023-03-26T00:19:25;17.10;;;3.80;;
17604;SDS011;8921;50.964;6.800;2023-03-26T00:21:54;15.33;;;3.47;;
17604;SDS011;8921;50.964;6.800;2023-03-26T00:24:22;25.73;;;3.90;;
17604;SDS011;8921;50.964;6.800;2023-03-26T00:26:50;16.50;;;4.00;;
17604;SDS011;8921;50.964;6.800;2023-03-26T00:29:19;20.00;;;3.77;;
17604;SDS011;8921;50.964;6.800;2023-03-26T00:31:47;15.33;;;4.50;;
17604;SDS011;8921;50.964;6.800;2023-03-26T00:34:15;20.97;;;4.37;;
17604;SDS011;8921;50.964;6.800;2023-03-26T00:36:43;23.77;;;8.23;;
17604;SDS011;8921;50.964;6.800;2023-03-26T00:39:12;21.77;;;4.60;;
17604;SDS011;8921;50.964;6.800;2023-03-26T00:41:40;15.60;;;4.13;;
17604;SDS011;8921;50.964;6.800;2023-03-26T00:44:08;14.40;;;4.33;;
17604;SDS011;8921;50.964;6.800;2023-03-26T00:46:36;11.47;;;3.83;;
17604;SDS011;8921;50.964;6.800;2023-03-26T00:49:05;14.40;;;3.90;;
17604;SDS011;8921;50.964;6.800;2023-03-26T00:51:33;14.53;;;5.20;;
17604;SDS011;8921;50.964;6.800;2023-03-26T00:54:01;16.73;;;5.37;;
17604;SDS011;8921;50.964;6.800;2023-03-26T00:56:30;13.33;;;4.13;;
17604;SDS011;8921;50.964;6.800;2023-03-26T00:58:58;25.03;;;5.07;;
17604;SDS011;8921;50.964;6.800;2023-03-26T01:01:26;27.10;;;5.70;;
17604;SDS011;8921;50.964;6.800;2023-03-26T01:03:56;13.27;;;3.90;;
17604;SDS011;8921;50.964;6.800;2023-03-26T01:06:29;12.33;;;3.70;;
17604;SDS011;8921;50.964;6.800;2023-03-26T01:11:43;19.30;;;3.93;;
17604;SDS011;8921;50.964;6.800;2023-03-26T01:14:13;14.40;;;5.67;;
17604;SDS011;8921;50.964;6.800;2023-03-26T01:19:13;24.23;;;4.80;;
17604;SDS011;8921;50.964;6.800;2023-03-26T01:21:38;21.07;;;3.87;;
17604;SDS011;8921;50.964;6.800;2023-03-26T01:24:08;11.13;;;3.37;;
17604;SDS011;8921;50.964;6.800;2023-03-26T01:29:11;17.57;;;4.50;;
17604;SDS011;8921;50.964;6.800;2023-03-26T01:34:17;11.80;;;3.83;;
17604;SDS011;8921;50.964;6.800;2023-03-26T01:39:26;15.23;;;3.33;;
17604;SDS011;8921;50.964;6.800;2023-03-26T01:41:57;13.70;;;3.60;;
17604;SDS011;8921;50.964;6.800;2023-03-26T01:44:38;23.10;;;4.53;;
17604;SDS011;8921;50.964;6.800;2023-03-26T01:47:05;12.50;;;3.40;;
17604;SDS011;8921;50.964;6.800;2023-03-26T01:49:33;14.43;;;3.67;;
17604;SDS011;8921;50.964;6.800;2023-03-26T01:52:04;13.67;;;3.53;;
17604;SDS011;8921;50.964;6.800;2023-03-26T01:54:30;19.67;;;3.90;;
17604;SDS011;8921;50.964;6.800;2023-03-26T01:59:57;13.67;;;4.60;;
17604;SDS011;8921;50.964;6.800;2023-03-26T02:02:35;14.73;;;4.10;;
17604;SDS011;8921;50.964;6.800;2023-03-26T02:05:19;10.10;;;4.00;;
17604;SDS011;8921;50.964;6.800;2023-03-26T02:10:41;13.47;;;3.43;;
17604;SDS011;8921;50.964;6.800;2023-03-26T02:13:09;20.50;;;4.33;;
17604;SDS011;8921;50.964;6.800;2023-03-26T02:15:37;13.40;;;4.33;;
17604;SDS011;8921;50.964;6.800;2023-03-26T02:18:05;15.53;;;4.13;;
17604;SDS011;8921;50.964;6.800;2023-03-26T02:20:33;17.30;;;3.60;;
17604;SDS011;8921;50.964;6.800;2023-03-26T02:23:01;19.57;;;6.03;;
17604;SDS011;8921;50.964;6.800;2023-03-26T02:25:29;11.73;;;2.57;;
17604;SDS011;8921;50.964;6.800;2023-03-26T02:27:58;17.00;;;3.90;;
17604;SDS011;8921;50.964;6.800;2023-03-26T02:30:26;14.60;;;3.53;;
17604;SDS011;8921;50.964;6.800;2023-03-26T02:32:54;14.73;;;3.63;;
17604;SDS011;8921;50.964;6.800;2023-03-26T02:35:23;21.87;;;4.40;;
17604;SDS011;8921;50.964;6.800;2023-03-26T02:37:51;22.03;;;4.00;;
17604;SDS011;8921;50.964;6.800;2023-03-26T02:40:19;11.30;;;3.20;;
17604;SDS011;8921;50.964;6.800;2023-03-26T02:42:48;8.70;;;2.57;;
17604;SDS011;8921;50.964;6.800;2023-03-26T02:45:16;20.60;;;3.70;;
17604;SDS011;8921;50.964;6.800;2023-03-26T02:47:44;18.13;;;2.97;;
17604;SDS011;8921;50.964;6.800;2023-03-26T02:50:12;22.13;;;3.87;;
17604;SDS011;8921;50.964;6.800;2023-03-26T02:52:41;10.60;;;4.20;;
17604;SDS011;8921;50.964;6.800;2023-03-26T02:55:09;11.40;;;3.33;;
17604;SDS011;8921;50.964;6.800;2023-03-26T02:57:37;15.20;;;3.27;;
17604;SDS011;8921;50.964;6.800;2023-03-26T03:00:06;17.93;;;4.57;;
17604;SDS011;8921;50.964;6.800;2023-03-26T03:02:40;23.63;;;4.20;;
17604;SDS011;8921;50.964;6.800;2023-03-26T03:05:08;21.20;;;3.93;;
17604;SDS011;8921;50.964;6.800;2023-03-26T03:07:36;22.37;;;3.63;;
17604;SDS011;8921;50.964;6.800;2023-03-26T03:10:08;14.10;;;3.33;;
17604;SDS011;8921;50.964;6.800;2023-03-26T03:12:36;15.10;;;3.90;;
17604;SDS011;8921;50.964;6.800;2023-03-26T03:15:04;14.80;;;3.80;;
17604;SDS011;8921;50.964;6.800;2023-03-26T03:17:33;13.27;;;3.17;;
17604;SDS011;8921;50.964;6.800;2023-03-26T03:20:01;13.67;;;3.70;;
17604;SDS011;8921;50.964;6.800;2023-03-26T03:22:29;14.83;;;3.30;;
17604;SDS011;8921;50.964;6.800;2023-03-26T03:24:58;14.83;;;3.30;;
17604;SDS011;8921;50.964;6.800;2023-03-26T03:27:26;17.70;;;4.60;;
17604;SDS011;8921;50.964;6.800;2023-03-26T03:29:54;14.67;;;3.10;;
17604;SDS011;8921;50.964;6.800;2023-03-26T03:32:23;18.10;;;4.10;;
17604;SDS011;8921;50.964;6.800;2023-03-26T03:34:51;11.10;;;3.77;;
17604;SDS011;8921;50.964;6.800;2023-03-26T03:37:19;9.43;;;2.43;;
17604;SDS011;8921;50.964;6.800;2023-03-26T03:39:47;20.37;;;4.20;;
17604;SDS011;8921;50.964;6.800;2023-03-26T03:42:16;9.20;;;3.00;;
17604;SDS011;8921;50.964;6.800;2023-03-26T03:44:44;12.80;;;3.20;;
17604;SDS011;8921;50.964;6.800;2023-03-26T03:47:12;12.60;;;3.20;;
17604;SDS011;8921;50.964;6.800;2023-03-26T03:49:40;16.97;;;3.63;;
17604;SDS011;8921;50.964;6.800;2023-03-26T03:52:09;7.93;;;2.73;;
17604;SDS011;8921;50.964;6.800;2023-03-26T03:54:37;9.70;;;2.73;;
17604;SDS011;8921;50.964;6.800;2023-03-26T03:57:05;16.13;;;3.80;;
17604;SDS011;8921;50.964;6.800;2023-03-26T03:59:33;12.00;;;3.30;;
17604;SDS011;8921;50.964;6.800;2023-03-26T04:02:03;14.20;;;3.63;;
17604;SDS011;8921;50.964;6.800;2023-03-26T04:04:31;10.90;;;2.60;;
17604;SDS011;8921;50.964;6.800;2023-03-26T04:06:59;10.23;;;2.50;;
17604;SDS011;8921;50.964;6.800;2023-03-26T04:09:28;13.50;;;2.97;;
17604;SDS011;8921;50.964;6.800;2023-03-26T04:11:56;11.40;;;3.10;;
17604;SDS011;8921;50.964;6.800;2023-03-26T04:14:24;10.17;;;4.00;;
17604;SDS011;8921;50.964;6.800;2023-03-26T04:16:52;11.30;;;2.80;;
17604;SDS011;8921;50.964;6.800;2023-03-26T04:19:21;10.70;;;3.27;;
17604;SDS011;8921;50.964;6.800;2023-03-26T04:21:49;10.73;;;2.70;;
17604;SDS011;8921;50.964;6.800;2023-03-26T04:24:17;18.17;;;3.47;;
17604;SDS011;8921;50.964;6.800;2023-03-26T04:26:46;15.20;;;2.87;;
17604;SDS011;8921;50.964;6.800;2023-03-26T04:29:14;11.33;;;2.80;;
17604;SDS011;8921;50.964;6.800;2023-03-26T04:31:42;9.80;;;3.03;;
17604;SDS011;8921;50.964;6.800;2023-03-26T04:34:18;11.53;;;3.07;;
17604;SDS011;8921;50.964;6.800;2023-03-26T04:36:42;8.53;;;2.03;;
17604;SDS011;8921;50.964;6.800;2023-03-26T04:39:10;20.33;;;3.67;;
17604;SDS011;8921;50.964;6.800;2023-03-26T04:41:38;14.90;;;3.30;;
17604;SDS011;8921;50.964;6.800;2023-03-26T04:44:06;14.33;;;2.80;;
17604;SDS011;8921;50.964;6.800;2023-03-26T04:46:35;14.67;;;3.20;;
17604;SDS011;8921;50.964;6.800;2023-03-26T04:49:03;20.47;;;2.80;;
17604;SDS011;8921;50.964;6.800;2023-03-26T04:51:34;13.93;;;3.70;;
17604;SDS011;8921;50.964;6.800;2023-03-26T04:54:00;10.17;;;3.70;;
17604;SDS011;8921;50.964;6.800;2023-03-26T04:59:00;12.27;;;3.20;;
17604;SDS011;8921;50.964;6.800;2023-03-26T05:01:27;11.77;;;3.00;;
17604;SDS011;8921;50.964;6.800;2023-03-26T05:03:56;14.93;;;3.50;;
17604;SDS011;8921;50.964;6.800;2023-03-26T05:06:24;10.73;;;3.27;;
17604;SDS011;8921;50.964;6.800;2023-03-26T05:08:52;12.40;;;3.17;;
17604;SDS011;8921;50.964;6.800;2023-03-26T05:11:20;16.20;;;3.20;;
17604;SDS011;8921;50.964;6.800;2023-03-26T05:13:48;16.53;;;3.93;;
17604;SDS011;8921;50.964;6.800;2023-03-26T05:16:17;13.67;;;3.40;;
17604;SDS011;8921;50.964;6.800;2023-03-26T05:18:45;13.73;;;4.00;;
17604;SDS011;8921;50.964;6.800;2023-03-26T05:21:13;16.00;;;5.17;;
17604;SDS011;8921;50.964;6.800;2023-03-26T05:23:42;10.17;;;3.20;;
17604;SDS011;8921;50.964;6.800;2023-03-26T05:26:10;11.87;;;4.57;;
17604;SDS011;8921;50.964;6.800;2023-03-26T05:28:38;11.03;;;3.70;;
17604;SDS011;8921;50.964;6.800;2023-03-26T05:31:06;13.50;;;4.20;;
17604;SDS011;8921;50.964;6.800;2023-03-26T05:33:35;12.53;;;3.13;;
17604;SDS011;8921;50.964;6.800;2023-03-26T05:36:04;13.30;;;5.33;;
17604;SDS011;8921;50.964;6.800;2023-03-26T05:38:32;12.63;;;4.77;;
17604;SDS011;8921;50.964;6.800;2023-03-26T05:41:00;13.80;;;4.20;;
17604;SDS011;8921;50.964;6.800;2023-03-26T05:43:28;10.40;;;3.83;;
17604;SDS011;8921;50.964;6.800;2023-03-26T05:45:56;12.10;;;3.20;;
17604;SDS011;8921;50.964;6.800;2023-03-26T05:48:24;13.67;;;4.03;;
17604;SDS011;8921;50.964;6.800;2023-03-26T05:50:53;14.47;;;3.97;;
17604;SDS011;8921;50.964;6.800;2023-03-26T05:53:21;13.13;;;3.00;;
17604;SDS011;8921;50.964;6.800;2023-03-26T05:55:49;8.77;;;3.37;;
17604;SDS011;8921;50.964;6.800;2023-03-26T05:58:24;9.20;;;3.80;;
17604;SDS011;8921;50.964;6.800;2023-03-26T06:00:58;11.93;;;4.00;;
17604;SDS011;8921;50.964;6.800;2023-03-26T06:03:26;11.87;;;4.20;;
17604;SDS011;8921;50.964;6.800;2023-03-26T06:05:54;12.40;;;3.13;;
17604;SDS011;8921;50.964;6.800;2023-03-26T06:08:23;9.23;;;3.10;;
17604;SDS011;8921;50.964;6.800;2023-03-26T06:11:00;10.80;;;2.73;;
17604;SDS011;8921;50.964;6.800;2023-03-26T06:13:25;11.80;;;3.20;;
17604;SDS011;8921;50.964;6.800;2023-03-26T06:15:53;8.93;;;3.37;;
17604;SDS011;8921;50.964;6.800;2023-03-26T06:18:22;10.43;;;3.63;;
17604;SDS011;8921;50.964;6.800;2023-03-26T06:20:50;13.77;;;3.20;;
17604;SDS011;8921;50.964;6.800;2023-03-26T06:23:18;13.37;;;4.07;;
17604;SDS011;8921;50.964;6.800;2023-03-26T06:25:46;10.47;;;3.30;;
17604;SDS011;8921;50.964;6.800;2023-03-26T06:28:15;9.27;;;3.70;;
17604;SDS011;8921;50.964;6.800;2023-03-26T06:30:43;12.50;;;4.60;;
17604;SDS011;8921;50.964;6.800;2023-03-26T06:33:11;13.40;;;7.33;;
17604;SDS011;8921;50.964;6.800;2023-03-26T06:35:40;14.50;;;5.40;;
17604;SDS011;8921;50.964;6.800;2023-03-26T06:38:08;18.00;;;4.67;;
17604;SDS011;8921;50.964;6.800;2023-03-26T06:40:36;14.83;;;5.50;;
17604;SDS011;8921;50.964;6.800;2023-03-26T06:43:04;15.07;;;4.57;;
17604;SDS011;8921;50.964;6.800;2023-03-26T06:45:33;11.80;;;4.40;;
17604;SDS011;8921;50.964;6.800;2023-03-26T06:48:01;20.47;;;4.30;;
17604;SDS011;8921;50.964;6.800;2023-03-26T06:50:29;12.90;;;3.87;;
17604;SDS011;8921;50.964;6.800;2023-03-26T06:52:58;19.43;;;5.43;;
17604;SDS011;8921;50.964;6.800;2023-03-26T06:55:26;12.40;;;4.10;;
17604;SDS011;8921;50.964;6.800;2023-03-26T06:57:54;16.50;;;5.67;;
17604;SDS011;8921;50.964;6.800;2023-03-26T07:00:22;13.40;;;4.37;;
17604;SDS011;8921;50.964;6.800;2023-03-26T07:02:51;19.20;;;4.00;;
17604;SDS011;8921;50.964;6.800;2023-03-26T07:05:19;19.00;;;5.90;;
17604;SDS011;8921;50.964;6.800;2023-03-26T07:07:47;14.90;;;4.47;;
17604;SDS011;8921;50.964;6.800;2023-03-26T07:10:15;14.70;;;3.83;;
17604;SDS011;8921;50.964;6.800;2023-03-26T07:12:44;16.17;;;4.97;;
17604;SDS011;8921;50.964;6.800;2023-03-26T07:15:12;17.10;;;4.30;;
17604;SDS011;8921;50.964;6.800;2023-03-26T07:17:40;15.43;;;4.30;;
17604;SDS011;8921;50.964;6.800;2023-03-26T07:20:09;12.97;;;3.50;;
17604;SDS011;8921;50.964;6.800;2023-03-26T07:22:37;7.93;;;4.13;;
17604;SDS011;8921;50.964;6.800;2023-03-26T07:25:06;11.77;;;4.67;;
17604;SDS011;8921;50.964;6.800;2023-03-26T07:27:35;13.60;;;4.20;;
17604;SDS011;8921;50.964;6.800;2023-03-26T07:30:04;22.00;;;4.03;;
17604;SDS011;8921;50.964;6.800;2023-03-26T07:33:05;10.07;;;3.80;;
17604;SDS011;8921;50.964;6.800;2023-03-26T07:35:48;12.13;;;4.10;;
17604;SDS011;8921;50.964;6.800;2023-03-26T07:46:23;17.63;;;4.73;;
17604;SDS011;8921;50.964;6.800;2023-03-26T07:48:49;10.87;;;6.17;;
17604;SDS011;8921;50.964;6.800;2023-03-26T07:51:17;11.87;;;4.20;;
17604;SDS011;8921;50.964;6.800;2023-03-26T07:53:45;12.40;;;4.30;;
17604;SDS011;8921;50.964;6.800;2023-03-26T07:56:18;15.93;;;4.30;;
17604;SDS011;8921;50.964;6.800;2023-03-26T07:59:11;12.60;;;4.30;;
17604;SDS011;8921;50.964;6.800;2023-03-26T08:01:40;13.20;;;4.00;;
17604;SDS011;8921;50.964;6.800;2023-03-26T08:04:38;11.67;;;4.47;;
17604;SDS011;8921;50.964;6.800;2023-03-26T08:07:13;14.97;;;5.13;;
17604;SDS011;8921;50.964;6.800;2023-03-26T08:15:07;11.67;;;4.00;;
17604;SDS011;8921;50.964;6.800;2023-03-26T08:17:38;14.43;;;5.27;;
17604;SDS011;8921;50.964;6.800;2023-03-26T08:20:17;13.43;;;4.00;;
17604;SDS011;8921;50.964;6.800;2023-03-26T08:22:42;13.50;;;5.00;;
17604;SDS011;8921;50.964;6.800;2023-03-26T08:25:21;16.07;;;4.57;;
17604;SDS011;8921;50.964;6.800;2023-03-26T08:30:39;16.47;;;4.60;;
17604;SDS011;8921;50.964;6.800;2023-03-26T08:33:12;11.80;;;4.20;;
17604;SDS011;8921;50.964;6.800;2023-03-26T08:35:39;21.07;;;5.60;;
17604;SDS011;8921;50.964;6.800;2023-03-26T08:38:08;15.73;;;4.20;;
17604;SDS011;8921;50.964;6.800;2023-03-26T08:43:32;10.90;;;3.63;;
17604;SDS011;8921;50.964;6.800;2023-03-26T08:48:58;14.60;;;4.27;;
17604;SDS011;8921;50.964;6.800;2023-03-26T08:54:25;11.30;;;3.93;;
17604;SDS011;8921;50.964;6.800;2023-03-26T09:05:42;14.50;;;4.47;;
17604;SDS011;8921;50.964;6.800;2023-03-26T09:42:08;8.60;;;3.40;;
17604;SDS011;8921;50.964;6.800;2023-03-26T09:47:36;10.27;;;3.90;;
17604;SDS011;8921;50.964;6.800;2023-03-26T10:05:00;8.43;;;3.47;;
17604;SDS011;8921;50.964;6.800;2023-03-26T10:17:30;5.80;;;2.00;;
17604;SDS011;8921;50.964;6.800;2023-03-26T10:26:18;6.60;;;2.20;;
17604;SDS011;8921;50.964;6.800;2023-03-26T10:29:01;6.97;;;2.83;;
17604;SDS011;8921;50.964;6.800;2023-03-26T10:34:03;8.57;;;2.53;;
17604;SDS011;8921;50.964;6.800;2023-03-26T10:36:49;6.33;;;2.27;;
17604;SDS011;8921;50.964;6.800;2023-03-26T10:39:33;5.53;;;2.13;;
17604;SDS011;8921;50.964;6.800;2023-03-26T10:42:06;5.53;;;2.27;;
17604;SDS011;8921;50.964;6.800;2023-03-26T10:50:24;8.60;;;2.50;;
17604;SDS011;8921;50.964;6.800;2023-03-26T10:52:53;8.87;;;2.20;;
17604;SDS011;8921;50.964;6.800;2023-03-26T10:55:25;7.60;;;2.43;;
17604;SDS011;8921;50.964;6.800;2023-03-26T10:57:55;6.73;;;2.90;;
17604;SDS011;8921;50.964;6.800;2023-03-26T11:00:41;7.03;;;2.73;;
17604;SDS011;8921;50.964;6.800;2023-03-26T11:19:10;7.57;;;2.80;;
17604;SDS011;8921;50.964;6.800;2023-03-26T11:21:38;7.00;;;2.40;;
17604;SDS011;8921;50.964;6.800;2023-03-26T11:26:53;7.13;;;2.70;;
17604;SDS011;8921;50.964;6.800;2023-03-26T11:34:40;7.07;;;2.63;;
17604;SDS011;8921;50.964;6.800;2023-03-26T11:37:16;6.90;;;2.97;;
17604;SDS011;8921;50.964;6.800;2023-03-26T11:39:47;8.23;;;3.10;;
17604;SDS011;8921;50.964;6.800;2023-03-26T11:42:17;6.57;;;2.73;;
17604;SDS011;8921;50.964;6.800;2023-03-26T11:44:48;9.07;;;3.10;;
17604;SDS011;8921;50.964;6.800;2023-03-26T11:47:23;9.50;;;2.63;;
17604;SDS011;8921;50.964;6.800;2023-03-26T11:49:51;4.80;;;2.17;;
17604;SDS011;8921;50.964;6.800;2023-03-26T11:52:19;10.37;;;4.97;;
17604;SDS011;8921;50.964;6.800;2023-03-26T11:54:47;8.60;;;4.40;;
17604;SDS011;8921;50.964;6.800;2023-03-26T11:57:19;9.17;;;3.30;;
17604;SDS011;8921;50.964;6.800;2023-03-26T12:02:16;7.67;;;2.63;;
17604;SDS011;8921;50.964;6.800;2023-03-26T12:04:44;5.50;;;2.80;;
17604;SDS011;8921;50.964;6.800;2023-03-26T12:07:18;7.03;;;2.63;;
17604;SDS011;8921;50.964;6.800;2023-03-26T12:09:49;7.57;;;3.30;;
17604;SDS011;8921;50.964;6.800;2023-03-26T12:12:17;5.20;;;2.80;;
17604;SDS011;8921;50.964;6.800;2023-03-26T12:14:45;9.43;;;2.60;;
17604;SDS011;8921;50.964;6.800;2023-03-26T12:17:22;5.17;;;2.30;;
17604;SDS011;8921;50.964;6.800;2023-03-26T12:19:43;4.90;;;2.40;;
17604;SDS011;8921;50.964;6.800;2023-03-26T12:22:30;5.17;;;2.03;;
17604;SDS011;8921;50.964;6.800;2023-03-26T12:25:00;6.17;;;2.50;;
17604;SDS011;8921;50.964;6.800;2023-03-26T12:27:27;6.37;;;2.70;;
17604;SDS011;8921;50.964;6.800;2023-03-26T12:30:08;4.67;;;2.40;;
17604;SDS011;8921;50.964;6.800;2023-03-26T12:32:30;7.07;;;2.87;;
17604;SDS011;8921;50.964;6.800;2023-03-26T12:35:03;5.87;;;3.60;;
17604;SDS011;8921;50.964;6.800;2023-03-26T12:37:33;6.10;;;2.50;;
17604;SDS011;8921;50.964;6.800;2023-03-26T12:40:24;5.40;;;2.50;;
17604;SDS011;8921;50.964;6.800;2023-03-26T12:42:38;5.00;;;2.50;;
17604;SDS011;8921;50.964;6.800;2023-03-26T12:45:03;6.60;;;2.97;;
17604;SDS011;8921;50.964;6.800;2023-03-26T12:47:31;7.00;;;2.97;;
17604;SDS011;8921;50.964;6.800;2023-03-26T12:50:01;5.83;;;2.30;;
17604;SDS011;8921;50.964;6.800;2023-03-26T12:52:34;4.23;;;2.13;;
17604;SDS011;8921;50.964;6.800;2023-03-26T12:57:31;4.27;;;2.43;;
17604;SDS011;8921;50.964;6.800;2023-03-26T13:00:03;9.00;;;2.90;;
17604;SDS011;8921;50.964;6.800;2023-03-26T13:02:43;7.93;;;2.77;;
17604;SDS011;8921;50.964;6.800;2023-03-26T13:15:59;6.80;;;2.30;;
17604;SDS011;8921;50.964;6.800;2023-03-26T13:24:23;6.17;;;2.97;;
17604;SDS011;8921;50.964;6.800;2023-03-26T13:27:10;4.93;;;2.20;;
17604;SDS011;8921;50.964;6.800;2023-03-26T13:29:51;5.40;;;2.43;;
17604;SDS011;8921;50.964;6.800;2023-03-26T13:32:25;6.30;;;2.57;;
17604;SDS011;8921;50.964;6.800;2023-03-26T13:37:47;4.63;;;2.47;;
17604;SDS011;8921;50.964;6.800;2023-03-26T13:43:10;6.23;;;3.80;;
17604;SDS011;8921;50.964;6.800;2023-03-26T13:45:58;4.60;;;1.90;;
17604;SDS011;8921;50.964;6.800;2023-03-26T13:48:34;5.10;;;1.80;;
17604;SDS011;8921;50.964;6.800;2023-03-26T13:51:03;5.40;;;1.93;;
17604;SDS011;8921;50.964;6.800;2023-03-26T13:53:35;4.90;;;1.80;;
17604;SDS011;8921;50.964;6.800;2023-03-26T13:56:00;5.03;;;2.00;;
17604;SDS011;8921;50.964;6.800;2023-03-26T14:01:06;3.23;;;1.53;;
17604;SDS011;8921;50.964;6.800;2023-03-26T14:09:21;4.47;;;1.50;;
17604;SDS011;8921;50.964;6.800;2023-03-26T14:12:09;11.03;;;1.53;;
17604;SDS011;8921;50.964;6.800;2023-03-26T14:14:36;6.30;;;1.90;;
17604;SDS011;8921;50.964;6.800;2023-03-26T14:25:59;7.03;;;1.50;;
17604;SDS011;8921;50.964;6.800;2023-03-26T14:33:46;5.33;;;1.57;;
17604;SDS011;8921;50.964;6.800;2023-03-26T14:36:33;7.83;;;3.00;;
17604;SDS011;8921;50.964;6.800;2023-03-26T14:41:52;5.73;;;1.50;;
17604;SDS011;8921;50.964;6.800;2023-03-26T14:44:24;3.97;;;1.40;;
17604;SDS011;8921;50.964;6.800;2023-03-26T14:47:15;3.30;;;1.30;;
17604;SDS011;8921;50.964;6.800;2023-03-26T14:50:10;5.00;;;1.33;;
17604;SDS011;8921;50.964;6.800;2023-03-26T14:56:00;3.30;;;1.30;;
17604;SDS011;8921;50.964;6.800;2023-03-26T14:58:09;4.23;;;1.30;;
17604;SDS011;8921;50.964;6.800;2023-03-26T15:06:25;4.47;;;2.03;;
17604;SDS011;8921;50.964;6.800;2023-03-26T15:28:24;3.00;;;1.17;;
17604;SDS011;8921;50.964;6.800;2023-03-26T15:34:07;4.53;;;1.30;;
17604;SDS011;8921;50.964;6.800;2023-03-26T15:45:20;4.10;;;1.43;;
17604;SDS011;8921;50.964;6.800;2023-03-26T15:50:42;3.67;;;1.40;;
17604;SDS011;8921;50.964;6.800;2023-03-26T15:58:26;5.83;;;1.60;;
17604;SDS011;8921;50.964;6.800;2023-03-26T16:00:55;6.13;;;1.60;;
17604;SDS011;8921;50.964;6.800;2023-03-26T16:03:24;4.00;;;1.97;;
17604;SDS011;8921;50.964;6.800;2023-03-26T16:13:29;5.43;;;1.80;;
17604;SDS011;8921;50.964;6.800;2023-03-26T16:15:54;4.10;;;1.93;;
17604;SDS011;8921;50.964;6.800;2023-03-26T16:18:32;5.80;;;2.80;;
17604;SDS011;8921;50.964;6.800;2023-03-26T16:21:04;4.53;;;2.37;;
17604;SDS011;8921;50.964;6.800;2023-03-26T16:36:35;6.17;;;2.87;;
17604;SDS011;8921;50.964;6.800;2023-03-26T16:46:54;4.97;;;2.60;;
17604;SDS011;8921;50.964;6.800;2023-03-26T16:49:45;4.80;;;2.07;;
17604;SDS011;8921;50.964;6.800;2023-03-26T16:54:50;4.40;;;2.40;;
17604;SDS011;8921;50.964;6.800;2023-03-26T16:57:27;3.77;;;1.80;;
17604;SDS011;8921;50.964;6.800;2023-03-26T17:08:19;4.70;;;2.63;;
17604;SDS011;8921;50.964;6.800;2023-03-26T17:10:54;4.83;;;2.67;;
17604;SDS011;8921;50.964;6.800;2023-03-26T17:13:21;5.53;;;2.43;;
17604;SDS011;8921;50.964;6.800;2023-03-26T17:15:58;4.50;;;2.20;;
17604;SDS011;8921;50.964;6.800;2023-03-26T17:21:12;5.80;;;1.80;;
17604;SDS011;8921;50.964;6.800;2023-03-26T17:24:00;4.57;;;2.10;;
17604;SDS011;8921;50.964;6.800;2023-03-26T17:26:43;3.90;;;2.20;;
17604;SDS011;8921;50.964;6.800;2023-03-26T17:29:11;6.40;;;3.10;;
17604;SDS011;8921;50.964;6.800;2023-03-26T17:34:31;6.10;;;3.30;;
17604;SDS011;8921;50.964;6.800;2023-03-26T17:37:08;5.57;;;2.90;;
17604;SDS011;8921;50.964;6.800;2023-03-26T17:44:56;6.23;;;3.10;;
17604;SDS011;8921;50.964;6.800;2023-03-26T17:49:55;14.57;;;8.20;;
17604;SDS011;8921;50.964;6.800;2023-03-26T17:52:22;14.13;;;8.60;;
17604;SDS011;8921;50.964;6.800;2023-03-26T17:54:49;20.03;;;10.53;;
17604;SDS011;8921;50.964;6.800;2023-03-26T17:59:54;23.73;;;10.37;;
17604;SDS011;8921;50.964;6.800;2023-03-26T18:02:36;25.20;;;9.60;;
17604;SDS011;8921;50.964;6.800;2023-03-26T18:05:03;16.60;;;9.77;;
17604;SDS011;8921;50.964;6.800;2023-03-26T18:10:29;21.03;;;9.63;;
17604;SDS011;8921;50.964;6.800;2023-03-26T18:17:50;20.20;;;9.37;;
17604;SDS011;8921;50.964;6.800;2023-03-26T18:20:23;21.13;;;9.27;;
17604;SDS011;8921;50.964;6.800;2023-03-26T18:22:50;15.20;;;7.90;;
17604;SDS011;8921;50.964;6.800;2023-03-26T18:25:20;19.60;;;8.53;;
17604;SDS011;8921;50.964;6.800;2023-03-26T18:27:49;16.37;;;7.87;;
17604;SDS011;8921;50.964;6.800;2023-03-26T18:30:19;15.73;;;7.07;;
17604;SDS011;8921;50.964;6.800;2023-03-26T18:32:53;17.50;;;6.67;;
17604;SDS011;8921;50.964;6.800;2023-03-26T18:35:20;17.80;;;6.80;;
17604;SDS011;8921;50.964;6.800;2023-03-26T18:37:49;15.83;;;6.40;;
17604;SDS011;8921;50.964;6.800;2023-03-26T18:40:17;20.90;;;8.13;;
17604;SDS011;8921;50.964;6.800;2023-03-26T18:47:57;17.77;;;5.83;;
17604;SDS011;8921;50.964;6.800;2023-03-26T18:50:34;22.13;;;6.50;;
17604;SDS011;8921;50.964;6.800;2023-03-26T18:53:05;14.83;;;5.83;;
17604;SDS011;8921;50.964;6.800;2023-03-26T18:55:33;15.83;;;5.83;;
17604;SDS011;8921;50.964;6.800;2023-03-26T18:58:08;15.40;;;5.23;;
17604;SDS011;8921;50.964;6.800;2023-03-26T19:00:29;18.33;;;6.10;;
17604;SDS011;8921;50.964;6.800;2023-03-26T19:03:04;14.93;;;5.50;;
17604;SDS011;8921;50.964;6.800;2023-03-26T19:05:32;18.53;;;6.33;;
17604;SDS011;8921;50.964;6.800;2023-03-26T19:08:03;9.53;;;4.63;;
17604;SDS011;8921;50.964;6.800;2023-03-26T19:10:31;14.87;;;5.67;;
17604;SDS011;8921;50.964;6.800;2023-03-26T19:13:00;9.10;;;4.37;;
17604;SDS011;8921;50.964;6.800;2023-03-26T19:15:29;12.73;;;4.30;;
17604;SDS011;8921;50.964;6.800;2023-03-26T19:18:00;22.20;;;5.77;;
17604;SDS011;8921;50.964;6.800;2023-03-26T19:20:32;13.07;;;4.70;;
17604;SDS011;8921;50.964;6.800;2023-03-26T19:22:58;10.43;;;3.83;;
17604;SDS011;8921;50.964;6.800;2023-03-26T19:25:27;15.87;;;4.57;;
17604;SDS011;8921;50.964;6.800;2023-03-26T19:27:55;11.03;;;3.60;;
17604;SDS011;8921;50.964;6.800;2023-03-26T19:30:30;17.93;;;3.80;;
17604;SDS011;8921;50.964;6.800;2023-03-26T19:33:05;15.53;;;5.83;;
17604;SDS011;8921;50.964;6.800;2023-03-26T19:35:41;14.93;;;3.70;;
17604;SDS011;8921;50.964;6.800;2023-03-26T19:38:17;12.30;;;3.77;;
17604;SDS011;8921;50.964;6.800;2023-03-26T19:40:53;11.40;;;3.60;;
17604;SDS011;8921;50.964;6.800;2023-03-26T19:43:21;14.43;;;3.90;;
17604;SDS011;8921;50.964;6.800;2023-03-26T19:45:49;7.50;;;3.63;;
17604;SDS011;8921;50.964;6.800;2023-03-26T19:48:18;11.60;;;4.10;;
17604;SDS011;8921;50.964;6.800;2023-03-26T19:50:54;19.30;;;4.00;;
17604;SDS011;8921;50.964;6.800;2023-03-26T19:53:23;15.40;;;3.87;;
17604;SDS011;8921;50.964;6.800;2023-03-26T19:55:58;10.40;;;3.80;;
17604;SDS011;8921;50.964;6.800;2023-03-26T19:58:40;11.00;;;4.27;;
17604;SDS011;8921;50.964;6.800;2023-03-26T20:01:15;10.30;;;3.73;;
17604;SDS011;8921;50.964;6.800;2023-03-26T20:03:46;11.10;;;3.20;;
17604;SDS011;8921;50.964;6.800;2023-03-26T20:06:15;11.03;;;3.67;;
17604;SDS011;8921;50.964;6.800;2023-03-26T20:08:43;18.27;;;4.03;;
17604;SDS011;8921;50.964;6.800;2023-03-26T20:14:01;13.17;;;3.70;;
17604;SDS011;8921;50.964;6.800;2023-03-26T20:16:29;10.77;;;3.20;;
17604;SDS011;8921;50.964;6.800;2023-03-26T20:18:57;23.33;;;3.53;;
17604;SDS011;8921;50.964;6.800;2023-03-26T20:21:29;19.33;;;4.37;;
17604;SDS011;8921;50.964;6.800;2023-03-26T20:23:57;14.03;;;3.90;;
17604;SDS011;8921;50.964;6.800;2023-03-26T20:26:25;19.37;;;3.97;;
17604;SDS011;8921;50.964;6.800;2023-03-26T20:28:53;13.20;;;3.63;;
17604;SDS011;8921;50.964;6.800;2023-03-26T20:31:24;16.87;;;5.77;;
17604;SDS011;8921;50.964;6.800;2023-03-26T20:33:52;14.40;;;4.40;;
17604;SDS011;8921;50.964;6.800;2023-03-26T20:36:19;20.27;;;4.90;;
17604;SDS011;8921;50.964;6.800;2023-03-26T20:38:48;17.20;;;4.27;;
17604;SDS011;8921;50.964;6.800;2023-03-26T20:41:20;12.27;;;3.77;;